Hastings On Hudson, NY

9:40 AM EDT on April 19, 2015 (GMT -0400)
Lamont-Doherty Earth Observatory | | Change Station
CLOSE
Current Station
Personal Weather Station
Location: Palisades, NY
Elevation: 380 ft
Nearby Weather Stations

Elev 380 ft 41.00 °N, 73.91 °W | Updated 8 minutes ago

Clear
Clear
54.1 °F
Feels Like 54.1 °F
N
4.0
Wind Variable Wind from ENE
Gusts 7.0 mph

Today
High -- | Low -- °F
--% Chance of Precip.
Yesterday
High -- | Low -- °F
Precip. -- in
6:10 AM 7:39 PM
New Moon, 1% visible
Pressure 30.24 in
Visibility 10.0 miles
Clouds Clear
Dew Point 31 °F
Humidity 41%
Rainfall 0.00 in
Snow Depth Not available.
UV 2.8 out of 12
Pollen 10.30 out of 12
Air Quality Not available.
Flu Activity Widespread
METAR KHPN 191256Z 07007KT 10SM CLR 12/M02 A3024 RMK AO2 SLP240 T01171022

More Conditions Fewer Conditions

Pressure 30.24 in
Visibility 10.0 miles
Clouds Clear
Dew Point 31 °F
Humidity 41%
Rainfall 0.00 in
Snow Depth Not available.
UV 2.8 out of 12
Pollen 10.30 out of 12
Air Quality Not available.
Flu Activity Widespread
METAR KHPN 191256Z 07007KT 10SM CLR 12/M02 A3024 RMK AO2 SLP240 T01171022

More Conditions Fewer Conditions

10-Day Weather Forecast

Almanac

Astronomy

Apr. 19, 2015 Rise Set
Actual Time
Civil Twilight
Nautical Twilight
Astronomical Twilight
Moon
Length of Visible Light
Length of Day
Tomorrow will be .
, % of the Moon is Illuminated

Today's Extremes

State Highs State Lows

Community

WunderPhotos

Upload Photos

1,814,795 photos uploaded!

WunderBlogs® & News

Nearby

Air Quality

  Air Quality AQ Index Pollutant
Not available.

Snow Depth

Station Depth Elevation

Earthquake Activity

City Distance Mag. Time & Date
Minimum magnitude displayed is 2.5.

Coastal Water Temperatures

Place Temperature

Stations

Nearby Weather Stations

Station Location Temp. Windchill Dew Point Humidity Wind Precip. Elev Updated Type